createdAt,value
2018-07-15T00:03:05.023Z,99.90
2018-07-15T00:05:35.692Z,99.90
2018-07-15T00:08:06.781Z,99.90
2018-07-15T00:13:15.847Z,99.90
2018-07-15T00:18:17.278Z,99.90
2018-07-15T00:20:48.170Z,99.90
2018-07-15T00:23:18.728Z,99.90
2018-07-15T00:25:49.693Z,99.90
2018-07-15T00:30:50.135Z,99.90
2018-07-15T00:33:21.068Z,99.90
2018-07-15T00:35:51.632Z,99.90
2018-07-15T00:38:22.200Z,99.90
2018-07-15T00:40:52.765Z,99.90
2018-07-15T00:45:52.873Z,99.90
2018-07-15T00:50:54.105Z,99.90
2018-07-15T00:53:24.669Z,99.90
2018-07-15T00:55:55.317Z,99.90
2018-07-15T00:58:25.964Z,99.90
2018-07-15T01:06:05.475Z,99.90
2018-07-15T01:11:06.517Z,99.90
2018-07-15T01:13:37.066Z,99.90
2018-07-15T01:18:38.171Z,99.90
2018-07-15T01:21:09.257Z,99.90
2018-07-15T01:23:39.805Z,99.90
2018-07-15T01:26:10.590Z,99.90
2018-07-15T01:28:41.493Z,99.90
2018-07-15T01:31:12.448Z,99.90
2018-07-15T01:33:42.994Z,99.90
2018-07-15T01:36:14.046Z,99.90
2018-07-15T01:38:44.648Z,99.90
2018-07-15T01:41:15.177Z,99.90
2018-07-15T01:46:16.067Z,99.90
2018-07-15T01:51:16.869Z,99.90
2018-07-15T01:56:17.675Z,99.90
2018-07-15T01:58:48.257Z,99.90
2018-07-15T02:03:49.316Z,99.90
2018-07-15T02:08:49.886Z,99.90
2018-07-15T02:11:20.640Z,99.90
2018-07-15T02:13:51.212Z,99.90
2018-07-15T02:16:22.682Z,99.90
2018-07-15T02:18:53.280Z,99.90
2018-07-15T02:21:24.240Z,99.90
2018-07-15T02:23:56.209Z,99.90
2018-07-15T02:26:27.193Z,99.90
2018-07-15T02:28:57.749Z,99.90
2018-07-15T02:31:28.797Z,99.90
2018-07-15T02:33:59.353Z,99.90
2018-07-15T02:39:01.210Z,99.90
2018-07-15T02:41:31.982Z,99.90
2018-07-15T02:44:02.559Z,99.90
2018-07-15T02:46:33.572Z,99.90
2018-07-15T02:49:04.138Z,99.90
2018-07-15T02:51:34.721Z,99.90
2018-07-15T02:56:35.608Z,99.90
2018-07-15T02:59:06.410Z,99.90
2018-07-15T03:01:37.517Z,99.90
2018-07-15T03:04:08.119Z,99.90
2018-07-15T03:06:38.835Z,99.90
2018-07-15T03:09:11.284Z,99.90
2018-07-15T03:14:11.668Z,99.90
2018-07-15T03:16:42.634Z,99.90
2018-07-15T03:21:43.145Z,99.90
2018-07-15T03:24:13.693Z,99.90
2018-07-15T03:26:44.434Z,99.90
2018-07-15T03:29:14.993Z,99.90
2018-07-15T03:31:46.191Z,99.90
2018-07-15T03:34:16.726Z,99.90
2018-07-15T03:39:17.637Z,99.90
2018-07-15T03:44:18.633Z,99.90
2018-07-15T03:46:49.169Z,99.90
2018-07-15T03:49:19.718Z,99.90
2018-07-15T03:54:20.705Z,99.90
2018-07-15T03:56:51.623Z,99.90
2018-07-15T03:59:22.678Z,99.90
2018-07-15T04:01:53.249Z,99.90
2018-07-15T04:04:23.966Z,99.90
2018-07-15T04:06:55.145Z,99.90
2018-07-15T04:09:25.725Z,99.90
2018-07-15T04:11:56.305Z,99.90
2018-07-15T04:14:27.067Z,99.90
2018-07-15T04:19:28.192Z,99.90
2018-07-15T04:21:58.729Z,99.90
2018-07-15T04:24:29.313Z,99.90
2018-07-15T04:27:00.328Z,99.90
2018-07-15T04:29:31.437Z,99.90
2018-07-15T04:32:02.295Z,99.90
2018-07-15T04:34:32.885Z,99.90
2018-07-15T04:39:33.709Z,99.90
2018-07-15T04:42:04.285Z,99.90
2018-07-15T04:44:35.205Z,99.90
2018-07-15T04:47:05.813Z,99.90
2018-07-15T04:49:36.371Z,99.90
2018-07-15T04:52:08.077Z,99.90
2018-07-15T04:54:38.771Z,99.90
2018-07-15T04:59:39.597Z,99.90
2018-07-15T05:02:10.536Z,99.90
2018-07-15T05:07:11.566Z,99.90
2018-07-15T05:09:42.225Z,99.90
2018-07-15T05:12:12.770Z,99.90
2018-07-15T05:17:13.108Z,99.90
2018-07-15T05:19:44.049Z,99.90
2018-07-15T05:22:14.985Z,99.90
2018-07-15T05:27:15.693Z,99.90
2018-07-15T05:29:46.201Z,99.90
2018-07-15T05:32:17.306Z,99.90
2018-07-15T05:39:47.865Z,99.90
2018-07-15T05:42:18.515Z,99.90
2018-07-15T05:44:49.585Z,99.90
2018-07-15T05:49:50.341Z,99.90
2018-07-15T05:52:21.016Z,99.90
2018-07-15T05:54:51.605Z,99.90
2018-07-15T05:57:22.835Z,99.90
2018-07-15T05:59:53.437Z,99.90
2018-07-15T06:02:24.157Z,99.90
2018-07-15T06:04:55.186Z,99.90
2018-07-15T06:07:25.758Z,99.90
2018-07-15T06:12:26.157Z,99.90
2018-07-15T06:14:57.109Z,99.90
2018-07-15T06:19:57.749Z,99.90
2018-07-15T06:24:58.369Z,99.90
2018-07-15T06:27:29.545Z,99.90
2018-07-15T06:32:36.949Z,99.90
2018-07-15T06:35:09.901Z,99.90
2018-07-15T06:37:43.619Z,99.90
2018-07-15T06:40:14.350Z,99.90
2018-07-15T06:42:45.283Z,99.90
2018-07-15T06:45:17.638Z,99.90
2018-07-15T06:47:48.446Z,99.90
2018-07-15T06:50:19.550Z,99.90
2018-07-15T06:52:51.461Z,99.90
2018-07-15T06:57:52.536Z,99.90
2018-07-15T07:00:23.632Z,99.90
2018-07-15T07:02:54.653Z,99.90
2018-07-15T07:07:56.022Z,99.90
2018-07-15T07:10:27.081Z,99.90
2018-07-15T07:15:28.369Z,99.90
2018-07-15T07:17:59.513Z,99.90
2018-07-15T07:20:31.037Z,99.90
2018-07-15T07:23:02.337Z,99.90
2018-07-15T07:25:32.973Z,99.90
2018-07-15T07:28:04.246Z,99.90
2018-07-15T07:30:34.870Z,99.90
2018-07-15T07:33:05.648Z,99.90
2018-07-15T07:35:36.733Z,99.90
2018-07-15T07:38:07.802Z,99.90
2018-07-15T07:40:38.404Z,99.90
2018-07-15T07:43:09.200Z,99.90
2018-07-15T07:45:41.340Z,99.90
2018-07-15T07:48:11.898Z,99.90
2018-07-15T07:50:42.475Z,99.90
2018-07-15T07:55:43.135Z,99.90
2018-07-15T07:58:16.165Z,99.90
2018-07-15T08:03:17.457Z,99.90
2018-07-15T08:08:18.025Z,99.90
2018-07-15T08:10:48.886Z,99.90
2018-07-15T08:13:19.800Z,99.90
2018-07-15T08:15:50.933Z,99.90
2018-07-15T08:18:22.273Z,99.90
2018-07-15T08:20:52.841Z,99.90
2018-07-15T08:23:23.477Z,99.90
2018-07-15T08:25:54.292Z,99.90
2018-07-15T08:28:25.976Z,99.90
2018-07-15T08:31:07.201Z,99.90
2018-07-15T08:33:37.777Z,99.90
2018-07-15T08:36:09.338Z,99.90
2018-07-15T08:38:40.389Z,99.90
2018-07-15T08:41:11.133Z,99.90
2018-07-15T08:43:41.765Z,99.90
2018-07-15T08:46:12.678Z,99.90
2018-07-15T08:48:43.502Z,99.90
2018-07-15T08:51:14.110Z,99.90
2018-07-15T08:53:46.221Z,99.90
2018-07-15T08:56:16.857Z,99.90
2018-07-15T08:58:48.008Z,99.90
2018-07-15T09:01:19.144Z,99.90
2018-07-15T09:06:20.458Z,99.90
2018-07-15T09:08:51.197Z,99.90
2018-07-15T09:13:51.771Z,99.90
2018-07-15T09:18:53.899Z,99.90
2018-07-15T09:21:24.823Z,99.90
2018-07-15T09:23:56.529Z,99.90
2018-07-15T09:26:27.897Z,99.90
2018-07-15T09:28:59.092Z,99.90
2018-07-15T09:31:29.979Z,99.90
2018-07-15T09:34:00.529Z,99.90
2018-07-15T09:36:31.229Z,99.90
2018-07-15T09:46:32.468Z,99.90
2018-07-15T09:49:03.496Z,99.90
2018-07-15T09:51:34.086Z,99.90
2018-07-15T09:54:04.668Z,99.90
2018-07-15T09:56:35.205Z,99.90
2018-07-15T09:59:06.314Z,99.90
2018-07-15T10:01:36.907Z,99.90
2018-07-15T10:04:08.181Z,99.90
2018-07-15T10:06:39.203Z,99.90
2018-07-15T10:09:09.721Z,99.90
2018-07-15T10:11:40.245Z,99.90
2018-07-15T10:14:11.357Z,99.90
2018-07-15T10:16:41.842Z,99.90
2018-07-15T10:19:12.425Z,99.90
2018-07-15T10:21:43.385Z,99.90
2018-07-15T10:24:13.947Z,99.90
2018-07-15T10:26:44.618Z,99.90
2018-07-15T10:29:15.754Z,99.90
2018-07-15T10:31:46.363Z,99.90
2018-07-15T10:34:17.148Z,99.90
2018-07-15T10:36:47.694Z,99.90
2018-07-15T10:39:18.681Z,99.90
2018-07-15T10:41:49.213Z,99.90
2018-07-15T10:44:20.081Z,99.90
2018-07-15T10:49:20.457Z,99.90
2018-07-15T10:51:51.372Z,99.90
2018-07-15T10:54:22.194Z,99.90
2018-07-15T10:56:52.917Z,99.90
2018-07-15T10:59:23.573Z,99.90
2018-07-15T11:01:54.125Z,99.90
2018-07-15T11:04:25.126Z,99.90
2018-07-15T11:06:55.589Z,99.90
2018-07-15T11:11:55.974Z,99.90
2018-07-15T11:14:27.181Z,99.90
2018-07-15T11:16:57.817Z,99.90
2018-07-15T11:19:28.359Z,99.90
2018-07-15T11:21:59.207Z,99.90
2018-07-15T11:26:59.570Z,99.90
2018-07-15T11:29:30.649Z,99.90
2018-07-15T11:32:01.192Z,99.90
2018-07-15T11:34:32.125Z,99.90
2018-07-15T11:37:02.682Z,99.90
2018-07-15T11:39:33.536Z,99.90
2018-07-15T11:42:04.073Z,99.90
2018-07-15T11:44:35.027Z,99.90
2018-07-15T11:47:05.804Z,99.90
2018-07-15T11:49:36.377Z,99.90
2018-07-15T11:52:06.892Z,99.90
2018-07-15T11:54:37.634Z,99.90
2018-07-15T11:57:08.117Z,99.90
2018-07-15T11:59:39.101Z,99.90
2018-07-15T12:02:09.672Z,99.90
2018-07-15T12:04:40.893Z,99.90
2018-07-15T12:07:11.349Z,99.90
2018-07-15T12:09:42.093Z,99.90
2018-07-15T12:12:12.605Z,99.90
2018-07-15T12:14:43.817Z,99.90
2018-07-15T12:17:14.381Z,99.90
2018-07-15T12:19:45.062Z,99.90
2018-07-15T12:22:15.592Z,99.90
2018-07-15T12:24:46.233Z,99.90
2018-07-15T12:27:17.021Z,99.90
2018-07-15T12:29:47.717Z,97.90
2018-07-15T12:32:18.429Z,96.30
2018-07-15T12:37:19.446Z,92.90
2018-07-15T12:39:50.374Z,91.10
2018-07-15T12:42:20.873Z,91.10
2018-07-15T12:44:51.633Z,90.70
2018-07-15T12:47:22.120Z,90.70
2018-07-15T12:49:52.974Z,91.20
2018-07-15T12:52:23.848Z,92.00
2018-07-15T12:54:54.333Z,94.10
2018-07-15T12:57:24.828Z,94.10
2018-07-15T12:59:55.864Z,93.90
2018-07-15T13:02:26.333Z,93.00
2018-07-15T13:04:57.090Z,92.10
2018-07-15T13:07:27.659Z,93.50
2018-07-15T13:12:28.117Z,93.00
2018-07-15T13:14:59.120Z,92.70
2018-07-15T13:17:29.661Z,91.50
2018-07-15T13:20:00.832Z,88.40
2018-07-15T13:22:31.393Z,87.80
2018-07-15T13:25:02.184Z,85.70
2018-07-15T13:27:33.080Z,85.40
2018-07-15T13:32:33.617Z,84.80
2018-07-15T13:35:04.511Z,85.20
2018-07-15T13:37:35.116Z,85.40
2018-07-15T13:40:05.790Z,82.90
2018-07-15T13:45:06.507Z,79.40
2018-07-15T13:47:37.025Z,80.10
2018-07-15T13:50:07.605Z,80.70
2018-07-15T13:52:38.173Z,79.60
2018-07-15T13:55:09.068Z,79.20
2018-07-15T13:57:39.637Z,79.10
2018-07-15T14:00:10.719Z,78.90
2018-07-15T14:02:41.579Z,76.80
2018-07-15T14:05:12.091Z,74.50
2018-07-15T14:10:12.490Z,68.60
2018-07-15T14:12:42.948Z,68.10
2018-07-15T14:15:13.796Z,68.40
2018-07-15T14:17:44.577Z,68.40
2018-07-15T14:20:15.186Z,65.40
2018-07-15T14:22:45.673Z,63.60
2018-07-15T14:25:16.326Z,64.40
2018-07-15T14:27:47.158Z,60.90
2018-07-15T14:30:17.752Z,59.40
2018-07-15T14:32:48.313Z,58.50
2018-07-15T14:37:48.963Z,54.90
2018-07-15T14:40:19.807Z,55.30
2018-07-15T14:42:50.293Z,58.90
2018-07-15T14:45:21.133Z,61.00
2018-07-15T14:50:21.687Z,67.60
2018-07-15T14:52:52.265Z,71.10
2018-07-15T14:55:22.917Z,73.60
2018-07-15T14:57:54.836Z,74.70
2018-07-15T15:00:25.601Z,74.20
2018-07-15T15:02:56.134Z,73.50
2018-07-15T15:05:27.163Z,71.80
2018-07-15T15:07:58.003Z,66.00
2018-07-15T15:10:28.569Z,60.50
2018-07-15T15:15:29.701Z,59.80
2018-07-15T15:18:00.237Z,61.20
2018-07-15T15:20:30.834Z,62.40
2018-07-15T15:23:01.354Z,62.70
2018-07-15T15:25:31.850Z,66.40
2018-07-15T15:28:02.883Z,67.50
2018-07-15T15:30:33.625Z,70.00
2018-07-15T15:33:04.161Z,71.80
2018-07-15T15:35:35.048Z,73.00
2018-07-15T15:38:05.542Z,72.20
2018-07-15T15:40:36.644Z,71.90
2018-07-15T15:43:07.128Z,70.30
2018-07-15T15:45:37.941Z,71.30
2018-07-15T15:48:08.763Z,68.90
2018-07-15T15:50:39.396Z,67.60
2018-07-15T15:53:09.857Z,67.10
2018-07-15T15:55:40.653Z,68.10
2018-07-15T15:58:11.301Z,67.40
2018-07-15T16:03:12.086Z,66.20
2018-07-15T16:05:42.722Z,66.20
2018-07-15T16:08:13.196Z,66.50
2018-07-15T16:10:44.212Z,68.40
2018-07-15T16:13:14.902Z,69.40
2018-07-15T16:15:45.432Z,70.10
2018-07-15T16:18:15.967Z,70.70
2018-07-15T16:20:46.425Z,73.40
2018-07-15T16:23:17.428Z,73.90
2018-07-15T16:25:48.026Z,73.70
2018-07-15T16:28:18.521Z,75.00
2018-07-15T16:30:49.674Z,75.60
2018-07-15T16:33:20.185Z,76.30
2018-07-15T16:35:50.865Z,77.80
2018-07-15T16:38:21.769Z,78.70
2018-07-15T16:43:22.476Z,77.10
2018-07-15T16:45:53.807Z,71.20
2018-07-15T16:48:24.357Z,66.10
2018-07-15T16:50:55.459Z,67.70
2018-07-15T16:53:25.958Z,66.60
2018-07-15T16:55:56.584Z,64.60
2018-07-15T16:58:27.465Z,62.90
2018-07-15T17:00:58.148Z,62.00
2018-07-15T17:03:28.631Z,59.80
2018-07-15T17:05:59.400Z,60.50
2018-07-15T17:08:30.029Z,63.40
2018-07-15T17:11:01.502Z,66.30
2018-07-15T17:13:32.342Z,70.10
2018-07-15T17:16:02.814Z,72.00
2018-07-15T17:18:33.757Z,74.50
2018-07-15T17:21:04.278Z,74.70
2018-07-15T17:26:05.144Z,72.90
2018-07-15T17:28:35.984Z,69.50
2018-07-15T17:31:06.618Z,67.40
2018-07-15T17:33:37.114Z,66.10
2018-07-15T17:36:08.460Z,66.30
2018-07-15T17:41:08.842Z,66.80
2018-07-15T17:43:39.733Z,67.10
2018-07-15T17:46:10.535Z,67.50
2018-07-15T17:51:10.972Z,66.60
2018-07-15T17:53:41.829Z,65.60
2018-07-15T17:56:12.635Z,65.10
2018-07-15T17:58:43.142Z,65.80
2018-07-15T18:01:14.311Z,64.50
2018-07-15T18:03:44.922Z,63.10
2018-07-15T18:06:15.684Z,64.10
2018-07-15T18:08:46.782Z,63.70
2018-07-15T18:12:36.573Z,63.70
2018-07-15T18:15:07.115Z,65.40
2018-07-15T18:17:37.921Z,67.20
2018-07-15T18:20:08.986Z,67.90
2018-07-15T18:22:39.522Z,70.30
2018-07-15T18:25:10.509Z,69.20
2018-07-15T18:27:42.089Z,70.30
2018-07-15T18:30:12.601Z,75.40
2018-07-15T18:32:43.489Z,79.30
2018-07-15T18:35:13.993Z,82.10
2018-07-15T18:37:45.914Z,84.60
2018-07-15T18:40:16.652Z,86.40
2018-07-15T18:42:47.341Z,90.90
2018-07-15T18:45:17.905Z,92.90
2018-07-15T18:47:48.965Z,94.80
2018-07-15T18:50:19.546Z,96.60
2018-07-15T18:52:50.055Z,99.40
2018-07-15T18:55:20.642Z,99.90
2018-07-15T18:57:51.449Z,99.90
2018-07-15T19:00:22.291Z,99.90
2018-07-15T19:02:52.771Z,99.90
2018-07-15T19:05:23.333Z,99.90
2018-07-15T19:07:54.550Z,99.90
2018-07-15T19:10:25.050Z,99.90
2018-07-15T19:12:55.937Z,99.90
2018-07-15T19:15:27.029Z,99.90
2018-07-15T19:17:57.773Z,99.90
2018-07-15T19:20:29.117Z,99.90
2018-07-15T19:25:29.850Z,99.90
2018-07-15T19:28:01.105Z,99.90
2018-07-15T19:30:31.757Z,99.90
2018-07-15T19:33:02.653Z,99.90
2018-07-15T19:35:33.913Z,99.90
2018-07-15T19:38:04.553Z,99.90
2018-07-15T19:45:39.864Z,99.90
2018-07-15T19:48:12.002Z,99.90
2018-07-15T19:50:42.484Z,99.90
2018-07-15T19:53:13.036Z,99.90
2018-07-15T19:55:43.862Z,99.90
2018-07-15T19:58:14.468Z,99.90
2018-07-15T20:00:45.320Z,99.90
2018-07-15T20:03:16.489Z,99.90
2018-07-15T20:05:47.637Z,99.90
2018-07-15T20:08:20.404Z,99.90
2018-07-15T20:10:51.378Z,99.90
2018-07-15T20:13:22.109Z,99.90
2018-07-15T20:15:52.641Z,99.90
2018-07-15T20:18:23.464Z,99.90
2018-07-15T20:20:54.056Z,99.90
2018-07-15T20:23:24.834Z,99.90
2018-07-15T20:25:55.392Z,99.90
2018-07-15T20:28:26.648Z,99.90
2018-07-15T20:30:57.961Z,99.90
2018-07-15T20:33:28.661Z,99.90
2018-07-15T20:36:00.380Z,99.90
2018-07-15T20:38:32.314Z,99.90
2018-07-15T20:41:02.801Z,99.90
2018-07-15T20:43:33.328Z,99.90
2018-07-15T20:46:03.906Z,99.90
2018-07-15T20:48:34.877Z,99.90
2018-07-15T20:53:35.169Z,99.90
2018-07-15T20:56:05.665Z,99.90
2018-07-15T21:01:07.506Z,99.90
2018-07-15T21:03:38.349Z,99.90
2018-07-15T21:06:08.957Z,99.90
2018-07-15T21:08:39.460Z,99.90
2018-07-15T21:16:10.397Z,99.90
2018-07-15T21:18:40.969Z,99.90
2018-07-15T21:21:11.876Z,99.90
2018-07-15T21:23:42.590Z,99.90
2018-07-15T21:26:13.166Z,99.90
2018-07-15T21:28:43.803Z,99.90
2018-07-15T21:31:14.617Z,99.90
2018-07-15T21:33:45.136Z,99.90
2018-07-15T21:36:15.608Z,99.90
2018-07-15T21:38:46.862Z,99.90
2018-07-15T21:41:17.429Z,99.90
2018-07-15T21:43:48.298Z,99.90
2018-07-15T21:46:19.229Z,99.90
2018-07-15T21:48:49.753Z,99.90
2018-07-15T21:51:20.343Z,99.90
2018-07-15T21:56:20.924Z,99.90
2018-07-15T21:58:51.805Z,99.90
2018-07-15T22:01:23.598Z,99.90
2018-07-15T22:03:54.213Z,99.90
2018-07-15T22:06:35.679Z,99.90
2018-07-15T22:09:17.063Z,99.90
2018-07-15T22:11:47.564Z,99.90
2018-07-15T22:14:18.322Z,99.90
2018-07-15T22:16:48.837Z,99.90
2018-07-15T22:19:20.008Z,99.90
2018-07-15T22:21:50.493Z,99.90
2018-07-15T22:26:50.933Z,99.90
2018-07-15T22:31:51.182Z,99.90
2018-07-15T22:36:51.904Z,99.90
2018-07-15T22:39:22.805Z,99.90
2018-07-15T22:41:53.302Z,99.90
2018-07-15T22:44:23.987Z,99.90
2018-07-15T22:46:54.453Z,99.90
2018-07-15T22:51:55.189Z,99.90
2018-07-15T22:54:25.716Z,99.90
2018-07-15T22:56:56.224Z,99.90
2018-07-15T22:59:27.117Z,99.90
2018-07-15T23:01:57.905Z,99.90
2018-07-15T23:04:43.945Z,99.90
2018-07-15T23:07:14.440Z,99.90
2018-07-15T23:12:15.238Z,99.90
2018-07-15T23:14:45.709Z,99.90
2018-07-15T23:17:16.167Z,99.90
2018-07-15T23:19:47.525Z,99.90
2018-07-15T23:22:18.014Z,99.90
2018-07-15T23:24:48.711Z,99.90
2018-07-15T23:27:19.341Z,99.90
2018-07-15T23:29:50.118Z,99.90
2018-07-15T23:32:20.629Z,99.90
2018-07-15T23:34:51.666Z,99.90
2018-07-15T23:39:51.899Z,99.90
2018-07-15T23:47:22.358Z,99.90
2018-07-15T23:52:23.350Z,99.90
2018-07-15T23:54:54.513Z,99.90
2018-07-15T23:57:25.001Z,99.90
2018-07-15T23:59:55.642Z,99.90
